sensor_id;sensor_type;location;lat;lon;timestamp;P1;durP1;ratioP1;P2;durP2;ratioP2
18610;SDS011;9435;52.122;5.502;2024-03-07T00:01:25;61.70;;;26.58;;
18610;SDS011;9435;52.122;5.502;2024-03-07T00:03:52;58.55;;;24.63;;
18610;SDS011;9435;52.122;5.502;2024-03-07T00:06:20;57.90;;;24.77;;
18610;SDS011;9435;52.122;5.502;2024-03-07T00:08:47;56.05;;;24.42;;
18610;SDS011;9435;52.122;5.502;2024-03-07T00:11:14;58.10;;;25.10;;
18610;SDS011;9435;52.122;5.502;2024-03-07T00:13:42;58.65;;;24.58;;
18610;SDS011;9435;52.122;5.502;2024-03-07T00:16:11;53.40;;;23.58;;
18610;SDS011;9435;52.122;5.502;2024-03-07T00:18:38;55.83;;;24.75;;
18610;SDS011;9435;52.122;5.502;2024-03-07T00:21:05;57.28;;;24.35;;
18610;SDS011;9435;52.122;5.502;2024-03-07T00:23:33;58.63;;;24.40;;
18610;SDS011;9435;52.122;5.502;2024-03-07T00:26:00;54.78;;;23.10;;
18610;SDS011;9435;52.122;5.502;2024-03-07T00:28:27;53.05;;;22.73;;
18610;SDS011;9435;52.122;5.502;2024-03-07T00:30:57;54.90;;;23.48;;
18610;SDS011;9435;52.122;5.502;2024-03-07T00:33:26;53.90;;;23.52;;
18610;SDS011;9435;52.122;5.502;2024-03-07T00:35:53;50.33;;;21.55;;
18610;SDS011;9435;52.122;5.502;2024-03-07T00:38:20;50.28;;;21.00;;
18610;SDS011;9435;52.122;5.502;2024-03-07T00:40:48;45.47;;;20.55;;
18610;SDS011;9435;52.122;5.502;2024-03-07T00:43:15;53.35;;;23.10;;
18610;SDS011;9435;52.122;5.502;2024-03-07T00:45:42;51.65;;;22.05;;
18610;SDS011;9435;52.122;5.502;2024-03-07T00:48:09;56.72;;;24.48;;
18610;SDS011;9435;52.122;5.502;2024-03-07T00:50:38;56.10;;;24.45;;
18610;SDS011;9435;52.122;5.502;2024-03-07T00:53:07;60.47;;;25.35;;
18610;SDS011;9435;52.122;5.502;2024-03-07T00:55:35;61.75;;;26.65;;
18610;SDS011;9435;52.122;5.502;2024-03-07T00:58:02;60.92;;;25.42;;
18610;SDS011;9435;52.122;5.502;2024-03-07T01:00:30;58.42;;;24.65;;
18610;SDS011;9435;52.122;5.502;2024-03-07T01:02:57;62.67;;;26.75;;
18610;SDS011;9435;52.122;5.502;2024-03-07T01:05:25;60.50;;;26.40;;
18610;SDS011;9435;52.122;5.502;2024-03-07T01:07:52;64.93;;;26.63;;
18610;SDS011;9435;52.122;5.502;2024-03-07T01:10:20;66.72;;;26.00;;
18610;SDS011;9435;52.122;5.502;2024-03-07T01:12:48;55.47;;;23.25;;
18610;SDS011;9435;52.122;5.502;2024-03-07T01:15:16;53.95;;;23.45;;
18610;SDS011;9435;52.122;5.502;2024-03-07T01:17:43;54.72;;;23.40;;
18610;SDS011;9435;52.122;5.502;2024-03-07T01:20:11;58.92;;;24.88;;
18610;SDS011;9435;52.122;5.502;2024-03-07T01:22:38;64.43;;;26.70;;
18610;SDS011;9435;52.122;5.502;2024-03-07T01:25:06;67.05;;;27.77;;
18610;SDS011;9435;52.122;5.502;2024-03-07T01:27:34;66.20;;;27.38;;
18610;SDS011;9435;52.122;5.502;2024-03-07T01:30:01;71.57;;;28.08;;
18610;SDS011;9435;52.122;5.502;2024-03-07T01:32:28;67.80;;;28.35;;
18610;SDS011;9435;52.122;5.502;2024-03-07T01:34:55;67.90;;;27.83;;
18610;SDS011;9435;52.122;5.502;2024-03-07T01:37:22;67.55;;;27.50;;
18610;SDS011;9435;52.122;5.502;2024-03-07T01:39:49;67.90;;;26.77;;
18610;SDS011;9435;52.122;5.502;2024-03-07T01:42:18;63.30;;;27.13;;
18610;SDS011;9435;52.122;5.502;2024-03-07T01:44:45;65.85;;;26.15;;
18610;SDS011;9435;52.122;5.502;2024-03-07T01:47:12;62.75;;;25.65;;
18610;SDS011;9435;52.122;5.502;2024-03-07T01:49:40;66.95;;;27.50;;
18610;SDS011;9435;52.122;5.502;2024-03-07T01:52:08;64.65;;;26.73;;
18610;SDS011;9435;52.122;5.502;2024-03-07T01:54:37;67.45;;;27.70;;
18610;SDS011;9435;52.122;5.502;2024-03-07T01:57:05;70.97;;;28.42;;
18610;SDS011;9435;52.122;5.502;2024-03-07T01:59:34;67.22;;;27.23;;
18610;SDS011;9435;52.122;5.502;2024-03-07T02:02:01;61.58;;;25.88;;
18610;SDS011;9435;52.122;5.502;2024-03-07T02:04:29;68.72;;;26.33;;
18610;SDS011;9435;52.122;5.502;2024-03-07T02:06:56;61.67;;;25.30;;
18610;SDS011;9435;52.122;5.502;2024-03-07T02:09:23;64.85;;;26.75;;
18610;SDS011;9435;52.122;5.502;2024-03-07T02:11:51;72.03;;;29.85;;
18610;SDS011;9435;52.122;5.502;2024-03-07T02:14:18;84.20;;;32.05;;
18610;SDS011;9435;52.122;5.502;2024-03-07T02:16:46;88.03;;;33.38;;
18610;SDS011;9435;52.122;5.502;2024-03-07T02:19:14;79.60;;;30.65;;
18610;SDS011;9435;52.122;5.502;2024-03-07T02:21:42;79.53;;;31.13;;
18610;SDS011;9435;52.122;5.502;2024-03-07T02:24:09;86.38;;;33.35;;
18610;SDS011;9435;52.122;5.502;2024-03-07T02:26:37;83.30;;;31.70;;
18610;SDS011;9435;52.122;5.502;2024-03-07T02:29:04;82.07;;;31.15;;
18610;SDS011;9435;52.122;5.502;2024-03-07T02:31:31;79.07;;;30.83;;
18610;SDS011;9435;52.122;5.502;2024-03-07T02:34:02;78.07;;;30.02;;
18610;SDS011;9435;52.122;5.502;2024-03-07T02:36:29;77.07;;;29.60;;
18610;SDS011;9435;52.122;5.502;2024-03-07T02:38:58;79.65;;;29.25;;
18610;SDS011;9435;52.122;5.502;2024-03-07T02:41:25;69.07;;;28.15;;
18610;SDS011;9435;52.122;5.502;2024-03-07T02:43:52;65.38;;;25.73;;
18610;SDS011;9435;52.122;5.502;2024-03-07T02:46:19;71.55;;;27.88;;
18610;SDS011;9435;52.122;5.502;2024-03-07T02:48:47;73.93;;;27.15;;
18610;SDS011;9435;52.122;5.502;2024-03-07T02:51:14;70.68;;;28.25;;
18610;SDS011;9435;52.122;5.502;2024-03-07T02:53:41;72.45;;;28.13;;
18610;SDS011;9435;52.122;5.502;2024-03-07T02:56:09;65.50;;;27.83;;
18610;SDS011;9435;52.122;5.502;2024-03-07T02:58:36;70.40;;;27.55;;
18610;SDS011;9435;52.122;5.502;2024-03-07T03:01:04;74.13;;;29.15;;
18610;SDS011;9435;52.122;5.502;2024-03-07T03:03:31;80.43;;;29.30;;
18610;SDS011;9435;52.122;5.502;2024-03-07T03:05:58;72.18;;;29.05;;
18610;SDS011;9435;52.122;5.502;2024-03-07T03:08:26;74.75;;;29.02;;
18610;SDS011;9435;52.122;5.502;2024-03-07T03:10:53;76.63;;;29.23;;
18610;SDS011;9435;52.122;5.502;2024-03-07T03:13:23;77.90;;;29.90;;
18610;SDS011;9435;52.122;5.502;2024-03-07T03:15:52;76.40;;;30.23;;
18610;SDS011;9435;52.122;5.502;2024-03-07T03:18:20;81.57;;;31.50;;
18610;SDS011;9435;52.122;5.502;2024-03-07T03:20:47;79.93;;;30.48;;
18610;SDS011;9435;52.122;5.502;2024-03-07T03:23:15;79.85;;;30.25;;
18610;SDS011;9435;52.122;5.502;2024-03-07T03:25:42;75.50;;;30.33;;
18610;SDS011;9435;52.122;5.502;2024-03-07T03:28:10;77.43;;;29.73;;
18610;SDS011;9435;52.122;5.502;2024-03-07T03:30:39;81.75;;;31.52;;
18610;SDS011;9435;52.122;5.502;2024-03-07T03:33:07;92.55;;;34.15;;
18610;SDS011;9435;52.122;5.502;2024-03-07T03:35:34;97.20;;;35.08;;
18610;SDS011;9435;52.122;5.502;2024-03-07T03:38:02;98.65;;;36.05;;
18610;SDS011;9435;52.122;5.502;2024-03-07T03:40:29;101.13;;;35.35;;
18610;SDS011;9435;52.122;5.502;2024-03-07T03:42:57;103.25;;;34.78;;
18610;SDS011;9435;52.122;5.502;2024-03-07T03:45:24;100.28;;;35.53;;
18610;SDS011;9435;52.122;5.502;2024-03-07T03:47:53;102.13;;;34.85;;
18610;SDS011;9435;52.122;5.502;2024-03-07T03:50:20;99.90;;;36.20;;
18610;SDS011;9435;52.122;5.502;2024-03-07T03:52:48;99.53;;;35.22;;
18610;SDS011;9435;52.122;5.502;2024-03-07T03:55:15;107.80;;;36.42;;
18610;SDS011;9435;52.122;5.502;2024-03-07T03:57:43;102.30;;;37.47;;
18610;SDS011;9435;52.122;5.502;2024-03-07T04:00:12;105.15;;;36.65;;
18610;SDS011;9435;52.122;5.502;2024-03-07T04:02:39;110.65;;;36.75;;
18610;SDS011;9435;52.122;5.502;2024-03-07T04:05:09;104.75;;;35.65;;
18610;SDS011;9435;52.122;5.502;2024-03-07T04:07:37;108.78;;;36.42;;
18610;SDS011;9435;52.122;5.502;2024-03-07T04:10:05;113.25;;;37.30;;
18610;SDS011;9435;52.122;5.502;2024-03-07T04:12:33;110.30;;;38.35;;
18610;SDS011;9435;52.122;5.502;2024-03-07T04:15:00;118.90;;;38.42;;
18610;SDS011;9435;52.122;5.502;2024-03-07T04:17:29;106.07;;;37.72;;
18610;SDS011;9435;52.122;5.502;2024-03-07T04:19:56;115.20;;;38.67;;
18610;SDS011;9435;52.122;5.502;2024-03-07T04:22:25;122.55;;;39.00;;
18610;SDS011;9435;52.122;5.502;2024-03-07T04:24:53;121.93;;;39.25;;
18610;SDS011;9435;52.122;5.502;2024-03-07T04:27:20;119.30;;;38.95;;
18610;SDS011;9435;52.122;5.502;2024-03-07T04:29:47;125.85;;;39.80;;
18610;SDS011;9435;52.122;5.502;2024-03-07T04:32:14;119.88;;;40.00;;
18610;SDS011;9435;52.122;5.502;2024-03-07T04:34:42;119.72;;;38.70;;
18610;SDS011;9435;52.122;5.502;2024-03-07T04:37:10;119.07;;;39.53;;
18610;SDS011;9435;52.122;5.502;2024-03-07T04:39:39;115.35;;;39.53;;
18610;SDS011;9435;52.122;5.502;2024-03-07T04:42:06;129.60;;;40.72;;
18610;SDS011;9435;52.122;5.502;2024-03-07T04:44:35;128.50;;;40.80;;
18610;SDS011;9435;52.122;5.502;2024-03-07T04:47:04;122.68;;;39.55;;
18610;SDS011;9435;52.122;5.502;2024-03-07T04:49:32;117.82;;;40.15;;
18610;SDS011;9435;52.122;5.502;2024-03-07T04:52:00;127.03;;;41.72;;
18610;SDS011;9435;52.122;5.502;2024-03-07T04:54:28;129.80;;;41.35;;
18610;SDS011;9435;52.122;5.502;2024-03-07T04:56:58;120.95;;;39.72;;
18610;SDS011;9435;52.122;5.502;2024-03-07T04:59:25;128.13;;;42.10;;
18610;SDS011;9435;52.122;5.502;2024-03-07T05:01:52;130.50;;;41.40;;
18610;SDS011;9435;52.122;5.502;2024-03-07T05:04:19;125.53;;;41.92;;
18610;SDS011;9435;52.122;5.502;2024-03-07T05:06:48;119.15;;;41.05;;
18610;SDS011;9435;52.122;5.502;2024-03-07T05:09:15;120.65;;;41.13;;
18610;SDS011;9435;52.122;5.502;2024-03-07T05:11:50;120.15;;;39.67;;
18610;SDS011;9435;52.122;5.502;2024-03-07T05:14:19;124.35;;;41.22;;
18610;SDS011;9435;52.122;5.502;2024-03-07T05:16:47;119.70;;;40.50;;
18610;SDS011;9435;52.122;5.502;2024-03-07T05:19:29;126.70;;;41.08;;
18610;SDS011;9435;52.122;5.502;2024-03-07T05:21:57;113.40;;;40.05;;
18610;SDS011;9435;52.122;5.502;2024-03-07T05:24:24;117.13;;;40.05;;
18610;SDS011;9435;52.122;5.502;2024-03-07T05:26:51;118.03;;;40.45;;
18610;SDS011;9435;52.122;5.502;2024-03-07T05:29:20;115.03;;;41.22;;
18610;SDS011;9435;52.122;5.502;2024-03-07T05:31:47;119.90;;;40.33;;
18610;SDS011;9435;52.122;5.502;2024-03-07T05:34:14;120.68;;;40.33;;
18610;SDS011;9435;52.122;5.502;2024-03-07T05:36:44;128.18;;;40.30;;
18610;SDS011;9435;52.122;5.502;2024-03-07T05:39:12;117.85;;;39.90;;
18610;SDS011;9435;52.122;5.502;2024-03-07T05:41:40;116.20;;;40.05;;
18610;SDS011;9435;52.122;5.502;2024-03-07T05:44:08;108.80;;;38.97;;
18610;SDS011;9435;52.122;5.502;2024-03-07T05:46:37;123.00;;;40.55;;
18610;SDS011;9435;52.122;5.502;2024-03-07T05:49:06;117.38;;;40.45;;
18610;SDS011;9435;52.122;5.502;2024-03-07T05:51:33;122.13;;;41.63;;
18610;SDS011;9435;52.122;5.502;2024-03-07T05:54:00;116.82;;;40.05;;
18610;SDS011;9435;52.122;5.502;2024-03-07T05:56:31;121.07;;;40.25;;
18610;SDS011;9435;52.122;5.502;2024-03-07T05:59:01;116.80;;;39.85;;
18610;SDS011;9435;52.122;5.502;2024-03-07T06:01:30;122.07;;;40.75;;
18610;SDS011;9435;52.122;5.502;2024-03-07T06:04:01;128.30;;;40.90;;
18610;SDS011;9435;52.122;5.502;2024-03-07T06:06:30;120.70;;;40.35;;
18610;SDS011;9435;52.122;5.502;2024-03-07T06:09:00;124.30;;;40.70;;
18610;SDS011;9435;52.122;5.502;2024-03-07T06:11:32;131.02;;;40.95;;
18610;SDS011;9435;52.122;5.502;2024-03-07T06:14:00;131.45;;;42.15;;
18610;SDS011;9435;52.122;5.502;2024-03-07T06:16:28;127.25;;;42.83;;
18610;SDS011;9435;52.122;5.502;2024-03-07T06:18:58;128.25;;;41.72;;
18610;SDS011;9435;52.122;5.502;2024-03-07T06:21:28;124.05;;;41.55;;
18610;SDS011;9435;52.122;5.502;2024-03-07T06:23:55;122.47;;;40.13;;
18610;SDS011;9435;52.122;5.502;2024-03-07T06:26:25;121.78;;;41.65;;
18610;SDS011;9435;52.122;5.502;2024-03-07T06:29:02;118.07;;;40.38;;
18610;SDS011;9435;52.122;5.502;2024-03-07T06:31:31;123.78;;;40.10;;
18610;SDS011;9435;52.122;5.502;2024-03-07T06:33:59;123.20;;;40.45;;
18610;SDS011;9435;52.122;5.502;2024-03-07T06:36:28;119.93;;;40.63;;
18610;SDS011;9435;52.122;5.502;2024-03-07T06:38:55;124.53;;;41.33;;
18610;SDS011;9435;52.122;5.502;2024-03-07T06:41:22;118.07;;;40.30;;
18610;SDS011;9435;52.122;5.502;2024-03-07T06:43:50;122.07;;;41.53;;
18610;SDS011;9435;52.122;5.502;2024-03-07T06:46:18;113.72;;;40.33;;
18610;SDS011;9435;52.122;5.502;2024-03-07T06:48:46;119.07;;;40.60;;
18610;SDS011;9435;52.122;5.502;2024-03-07T06:51:13;116.13;;;40.28;;
18610;SDS011;9435;52.122;5.502;2024-03-07T06:53:44;119.25;;;39.30;;
18610;SDS011;9435;52.122;5.502;2024-03-07T06:56:11;112.25;;;38.88;;
18610;SDS011;9435;52.122;5.502;2024-03-07T06:58:39;114.72;;;39.05;;
18610;SDS011;9435;52.122;5.502;2024-03-07T07:01:07;115.60;;;39.55;;
18610;SDS011;9435;52.122;5.502;2024-03-07T07:03:35;112.40;;;39.42;;
18610;SDS011;9435;52.122;5.502;2024-03-07T07:06:03;112.55;;;39.55;;
18610;SDS011;9435;52.122;5.502;2024-03-07T07:08:32;110.15;;;39.33;;
18610;SDS011;9435;52.122;5.502;2024-03-07T07:11:00;110.43;;;39.28;;
18610;SDS011;9435;52.122;5.502;2024-03-07T07:13:28;103.85;;;38.95;;
18610;SDS011;9435;52.122;5.502;2024-03-07T07:15:56;102.38;;;37.03;;
18610;SDS011;9435;52.122;5.502;2024-03-07T07:18:23;108.18;;;38.25;;
18610;SDS011;9435;52.122;5.502;2024-03-07T07:20:50;100.93;;;37.30;;
18610;SDS011;9435;52.122;5.502;2024-03-07T07:23:18;102.50;;;37.58;;
18610;SDS011;9435;52.122;5.502;2024-03-07T07:25:45;97.00;;;35.75;;
18610;SDS011;9435;52.122;5.502;2024-03-07T07:28:13;93.72;;;36.35;;
18610;SDS011;9435;52.122;5.502;2024-03-07T07:30:41;89.65;;;35.35;;
18610;SDS011;9435;52.122;5.502;2024-03-07T07:33:09;93.10;;;35.08;;
18610;SDS011;9435;52.122;5.502;2024-03-07T07:35:36;93.75;;;35.58;;
18610;SDS011;9435;52.122;5.502;2024-03-07T07:38:04;91.65;;;34.70;;
18610;SDS011;9435;52.122;5.502;2024-03-07T07:40:32;82.20;;;34.33;;
18610;SDS011;9435;52.122;5.502;2024-03-07T07:43:00;87.85;;;33.45;;
18610;SDS011;9435;52.122;5.502;2024-03-07T07:45:29;82.00;;;33.65;;
18610;SDS011;9435;52.122;5.502;2024-03-07T07:47:57;79.32;;;31.48;;
18610;SDS011;9435;52.122;5.502;2024-03-07T07:50:24;78.43;;;31.70;;
18610;SDS011;9435;52.122;5.502;2024-03-07T07:52:52;81.90;;;32.35;;
18610;SDS011;9435;52.122;5.502;2024-03-07T07:55:20;77.85;;;31.45;;
18610;SDS011;9435;52.122;5.502;2024-03-07T07:57:49;73.90;;;31.65;;
18610;SDS011;9435;52.122;5.502;2024-03-07T08:00:18;71.57;;;31.33;;
18610;SDS011;9435;52.122;5.502;2024-03-07T08:02:52;70.90;;;30.20;;
18610;SDS011;9435;52.122;5.502;2024-03-07T08:05:21;69.38;;;29.58;;
18610;SDS011;9435;52.122;5.502;2024-03-07T08:07:49;74.03;;;28.95;;
18610;SDS011;9435;52.122;5.502;2024-03-07T08:10:16;60.20;;;26.90;;
18610;SDS011;9435;52.122;5.502;2024-03-07T08:12:44;63.03;;;28.42;;
18610;SDS011;9435;52.122;5.502;2024-03-07T08:15:11;63.47;;;27.00;;
18610;SDS011;9435;52.122;5.502;2024-03-07T08:17:40;62.53;;;29.17;;
18610;SDS011;9435;52.122;5.502;2024-03-07T08:20:11;62.92;;;27.10;;
18610;SDS011;9435;52.122;5.502;2024-03-07T08:22:39;59.35;;;27.23;;
18610;SDS011;9435;52.122;5.502;2024-03-07T08:25:07;58.22;;;25.90;;
18610;SDS011;9435;52.122;5.502;2024-03-07T08:27:36;53.08;;;24.58;;
18610;SDS011;9435;52.122;5.502;2024-03-07T08:30:04;52.72;;;24.35;;
18610;SDS011;9435;52.122;5.502;2024-03-07T08:32:33;51.15;;;24.25;;
18610;SDS011;9435;52.122;5.502;2024-03-07T08:35:02;50.10;;;24.08;;
18610;SDS011;9435;52.122;5.502;2024-03-07T08:37:34;53.75;;;23.92;;
18610;SDS011;9435;52.122;5.502;2024-03-07T08:40:02;51.13;;;23.60;;
18610;SDS011;9435;52.122;5.502;2024-03-07T08:42:31;49.20;;;23.10;;
18610;SDS011;9435;52.122;5.502;2024-03-07T08:44:59;49.45;;;24.23;;
18610;SDS011;9435;52.122;5.502;2024-03-07T08:47:27;51.20;;;23.23;;
18610;SDS011;9435;52.122;5.502;2024-03-07T08:49:55;46.20;;;21.83;;
18610;SDS011;9435;52.122;5.502;2024-03-07T08:52:22;45.55;;;22.42;;
18610;SDS011;9435;52.122;5.502;2024-03-07T08:54:51;44.58;;;21.02;;
18610;SDS011;9435;52.122;5.502;2024-03-07T08:57:19;42.75;;;21.23;;
18610;SDS011;9435;52.122;5.502;2024-03-07T08:59:47;43.13;;;20.67;;
18610;SDS011;9435;52.122;5.502;2024-03-07T09:02:14;40.38;;;20.23;;
18610;SDS011;9435;52.122;5.502;2024-03-07T09:04:42;39.65;;;20.05;;
18610;SDS011;9435;52.122;5.502;2024-03-07T09:07:09;37.25;;;20.20;;
18610;SDS011;9435;52.122;5.502;2024-03-07T09:09:37;39.45;;;19.45;;
18610;SDS011;9435;52.122;5.502;2024-03-07T09:12:05;36.10;;;18.90;;
18610;SDS011;9435;52.122;5.502;2024-03-07T09:14:33;41.30;;;19.77;;
18610;SDS011;9435;52.122;5.502;2024-03-07T09:17:00;39.03;;;19.02;;
18610;SDS011;9435;52.122;5.502;2024-03-07T09:19:29;35.75;;;18.45;;
18610;SDS011;9435;52.122;5.502;2024-03-07T09:21:56;40.55;;;17.73;;
18610;SDS011;9435;52.122;5.502;2024-03-07T09:24:25;33.85;;;17.00;;
18610;SDS011;9435;52.122;5.502;2024-03-07T09:26:53;32.97;;;17.02;;
18610;SDS011;9435;52.122;5.502;2024-03-07T09:29:23;36.13;;;16.92;;
18610;SDS011;9435;52.122;5.502;2024-03-07T09:31:50;31.70;;;16.63;;
18610;SDS011;9435;52.122;5.502;2024-03-07T09:34:18;33.33;;;16.52;;
18610;SDS011;9435;52.122;5.502;2024-03-07T09:36:46;33.70;;;17.77;;
18610;SDS011;9435;52.122;5.502;2024-03-07T09:39:14;33.95;;;16.95;;
18610;SDS011;9435;52.122;5.502;2024-03-07T09:41:41;35.25;;;16.92;;
18610;SDS011;9435;52.122;5.502;2024-03-07T09:44:08;34.10;;;16.75;;
18610;SDS011;9435;52.122;5.502;2024-03-07T09:46:38;33.30;;;17.23;;
18610;SDS011;9435;52.122;5.502;2024-03-07T09:49:06;31.88;;;17.08;;
18610;SDS011;9435;52.122;5.502;2024-03-07T09:51:36;36.60;;;17.48;;
18610;SDS011;9435;52.122;5.502;2024-03-07T09:54:04;32.90;;;16.15;;
18610;SDS011;9435;52.122;5.502;2024-03-07T09:56:31;30.20;;;16.13;;
18610;SDS011;9435;52.122;5.502;2024-03-07T09:59:01;32.83;;;15.80;;
18610;SDS011;9435;52.122;5.502;2024-03-07T10:01:30;30.65;;;15.77;;
18610;SDS011;9435;52.122;5.502;2024-03-07T10:04:02;31.27;;;15.63;;
18610;SDS011;9435;52.122;5.502;2024-03-07T10:06:36;37.38;;;17.45;;
18610;SDS011;9435;52.122;5.502;2024-03-07T10:09:04;34.53;;;15.45;;
18610;SDS011;9435;52.122;5.502;2024-03-07T10:11:32;31.40;;;15.60;;
18610;SDS011;9435;52.122;5.502;2024-03-07T10:13:59;33.25;;;16.50;;
18610;SDS011;9435;52.122;5.502;2024-03-07T10:16:28;33.50;;;16.58;;
18610;SDS011;9435;52.122;5.502;2024-03-07T10:18:55;34.90;;;15.77;;
18610;SDS011;9435;52.122;5.502;2024-03-07T10:21:24;32.65;;;15.70;;
18610;SDS011;9435;52.122;5.502;2024-03-07T10:23:51;30.38;;;14.45;;
18610;SDS011;9435;52.122;5.502;2024-03-07T10:26:32;31.58;;;15.32;;
18610;SDS011;9435;52.122;5.502;2024-03-07T10:29:01;32.55;;;16.38;;
18610;SDS011;9435;52.122;5.502;2024-03-07T10:31:28;33.10;;;16.73;;
18610;SDS011;9435;52.122;5.502;2024-03-07T10:33:58;40.28;;;18.65;;
18610;SDS011;9435;52.122;5.502;2024-03-07T10:36:28;32.78;;;15.95;;
18610;SDS011;9435;52.122;5.502;2024-03-07T10:38:57;34.22;;;15.52;;
18610;SDS011;9435;52.122;5.502;2024-03-07T10:41:41;32.15;;;15.55;;
18610;SDS011;9435;52.122;5.502;2024-03-07T10:44:14;30.27;;;15.27;;
18610;SDS011;9435;52.122;5.502;2024-03-07T10:46:45;28.80;;;14.48;;
18610;SDS011;9435;52.122;5.502;2024-03-07T10:49:18;32.72;;;15.63;;
18610;SDS011;9435;52.122;5.502;2024-03-07T10:51:51;34.28;;;16.02;;
18610;SDS011;9435;52.122;5.502;2024-03-07T10:54:30;30.38;;;15.25;;
18610;SDS011;9435;52.122;5.502;2024-03-07T10:57:15;34.35;;;15.07;;
18610;SDS011;9435;52.122;5.502;2024-03-07T10:59:49;29.88;;;14.05;;
18610;SDS011;9435;52.122;5.502;2024-03-07T11:02:20;33.22;;;15.38;;
18610;SDS011;9435;52.122;5.502;2024-03-07T11:04:52;35.75;;;16.35;;
18610;SDS011;9435;52.122;5.502;2024-03-07T11:07:23;34.28;;;16.27;;
18610;SDS011;9435;52.122;5.502;2024-03-07T11:09:50;31.33;;;14.68;;
18610;SDS011;9435;52.122;5.502;2024-03-07T11:12:18;31.92;;;15.10;;
18610;SDS011;9435;52.122;5.502;2024-03-07T11:14:47;29.90;;;15.13;;
18610;SDS011;9435;52.122;5.502;2024-03-07T11:17:17;27.92;;;14.60;;
18610;SDS011;9435;52.122;5.502;2024-03-07T11:19:45;34.75;;;16.00;;
18610;SDS011;9435;52.122;5.502;2024-03-07T11:25:07;33.60;;;16.08;;
18610;SDS011;9435;52.122;5.502;2024-03-07T11:27:36;34.88;;;16.10;;
18610;SDS011;9435;52.122;5.502;2024-03-07T11:30:05;30.52;;;16.05;;
18610;SDS011;9435;52.122;5.502;2024-03-07T11:32:34;30.65;;;15.35;;
18610;SDS011;9435;52.122;5.502;2024-03-07T11:35:04;31.98;;;15.40;;
18610;SDS011;9435;52.122;5.502;2024-03-07T11:37:39;34.65;;;15.38;;
18610;SDS011;9435;52.122;5.502;2024-03-07T11:40:11;29.98;;;14.43;;
18610;SDS011;9435;52.122;5.502;2024-03-07T11:42:44;30.88;;;15.45;;
18610;SDS011;9435;52.122;5.502;2024-03-07T11:45:13;30.63;;;14.38;;
18610;SDS011;9435;52.122;5.502;2024-03-07T11:47:50;30.42;;;14.68;;
18610;SDS011;9435;52.122;5.502;2024-03-07T11:50:23;33.28;;;16.20;;
18610;SDS011;9435;52.122;5.502;2024-03-07T11:52:51;30.08;;;15.73;;
18610;SDS011;9435;52.122;5.502;2024-03-07T11:55:21;31.20;;;15.40;;
18610;SDS011;9435;52.122;5.502;2024-03-07T11:57:48;30.20;;;14.32;;
18610;SDS011;9435;52.122;5.502;2024-03-07T12:00:17;33.40;;;14.93;;
18610;SDS011;9435;52.122;5.502;2024-03-07T12:02:45;28.08;;;14.38;;
18610;SDS011;9435;52.122;5.502;2024-03-07T12:05:13;34.88;;;15.80;;
18610;SDS011;9435;52.122;5.502;2024-03-07T12:07:42;28.52;;;14.07;;
18610;SDS011;9435;52.122;5.502;2024-03-07T12:10:09;31.45;;;13.82;;
18610;SDS011;9435;52.122;5.502;2024-03-07T12:12:38;29.25;;;14.70;;
18610;SDS011;9435;52.122;5.502;2024-03-07T12:15:05;30.08;;;14.55;;
18610;SDS011;9435;52.122;5.502;2024-03-07T12:17:40;32.53;;;15.52;;
18610;SDS011;9435;52.122;5.502;2024-03-07T12:20:08;30.50;;;14.35;;
18610;SDS011;9435;52.122;5.502;2024-03-07T12:22:49;29.50;;;14.48;;
18610;SDS011;9435;52.122;5.502;2024-03-07T12:25:18;28.73;;;14.13;;
18610;SDS011;9435;52.122;5.502;2024-03-07T12:27:48;30.27;;;14.57;;
18610;SDS011;9435;52.122;5.502;2024-03-07T12:30:28;31.30;;;15.48;;
18610;SDS011;9435;52.122;5.502;2024-03-07T12:32:58;29.30;;;13.45;;
18610;SDS011;9435;52.122;5.502;2024-03-07T12:35:25;27.15;;;13.77;;
18610;SDS011;9435;52.122;5.502;2024-03-07T12:37:53;26.95;;;13.98;;
18610;SDS011;9435;52.122;5.502;2024-03-07T12:40:21;29.33;;;14.40;;
18610;SDS011;9435;52.122;5.502;2024-03-07T12:42:51;29.23;;;13.88;;
18610;SDS011;9435;52.122;5.502;2024-03-07T12:45:21;29.45;;;14.23;;
18610;SDS011;9435;52.122;5.502;2024-03-07T12:47:48;29.27;;;14.40;;
18610;SDS011;9435;52.122;5.502;2024-03-07T12:50:19;31.60;;;15.40;;
18610;SDS011;9435;52.122;5.502;2024-03-07T12:52:47;31.65;;;15.77;;
18610;SDS011;9435;52.122;5.502;2024-03-07T12:55:16;33.72;;;15.55;;
18610;SDS011;9435;52.122;5.502;2024-03-07T12:57:46;28.08;;;14.48;;
18610;SDS011;9435;52.122;5.502;2024-03-07T13:00:17;32.67;;;15.45;;
18610;SDS011;9435;52.122;5.502;2024-03-07T13:02:48;29.75;;;15.15;;
18610;SDS011;9435;52.122;5.502;2024-03-07T13:05:15;27.55;;;14.07;;
18610;SDS011;9435;52.122;5.502;2024-03-07T13:07:47;26.65;;;13.50;;
18610;SDS011;9435;52.122;5.502;2024-03-07T13:10:15;28.20;;;13.75;;
18610;SDS011;9435;52.122;5.502;2024-03-07T13:12:43;26.33;;;12.68;;
18610;SDS011;9435;52.122;5.502;2024-03-07T13:15:14;27.15;;;13.73;;
18610;SDS011;9435;52.122;5.502;2024-03-07T13:17:42;25.02;;;13.27;;
18610;SDS011;9435;52.122;5.502;2024-03-07T13:20:10;30.20;;;14.18;;
18610;SDS011;9435;52.122;5.502;2024-03-07T13:22:39;26.58;;;13.18;;
18610;SDS011;9435;52.122;5.502;2024-03-07T13:25:09;28.30;;;14.02;;
18610;SDS011;9435;52.122;5.502;2024-03-07T13:27:44;25.95;;;13.25;;
18610;SDS011;9435;52.122;5.502;2024-03-07T13:30:20;28.65;;;14.35;;
18610;SDS011;9435;52.122;5.502;2024-03-07T13:32:53;29.38;;;14.45;;
18610;SDS011;9435;52.122;5.502;2024-03-07T13:35:21;29.00;;;14.80;;
18610;SDS011;9435;52.122;5.502;2024-03-07T13:37:48;30.77;;;14.65;;
18610;SDS011;9435;52.122;5.502;2024-03-07T13:40:16;32.13;;;16.40;;
18610;SDS011;9435;52.122;5.502;2024-03-07T13:42:52;30.23;;;16.63;;
18610;SDS011;9435;52.122;5.502;2024-03-07T13:45:22;29.25;;;15.77;;
18610;SDS011;9435;52.122;5.502;2024-03-07T13:47:53;32.88;;;16.27;;
18610;SDS011;9435;52.122;5.502;2024-03-07T13:50:21;30.00;;;16.25;;
18610;SDS011;9435;52.122;5.502;2024-03-07T13:52:50;29.88;;;15.57;;
18610;SDS011;9435;52.122;5.502;2024-03-07T13:55:40;35.38;;;16.70;;
18610;SDS011;9435;52.122;5.502;2024-03-07T13:58:17;31.23;;;16.23;;
18610;SDS011;9435;52.122;5.502;2024-03-07T14:00:59;29.67;;;15.80;;
18610;SDS011;9435;52.122;5.502;2024-03-07T14:03:51;29.83;;;16.60;;
18610;SDS011;9435;52.122;5.502;2024-03-07T14:06:49;32.72;;;16.98;;
18610;SDS011;9435;52.122;5.502;2024-03-07T14:09:38;30.08;;;15.20;;
18610;SDS011;9435;52.122;5.502;2024-03-07T14:18:26;25.50;;;13.70;;
18610;SDS011;9435;52.122;5.502;2024-03-07T14:21:29;28.80;;;14.43;;
18610;SDS011;9435;52.122;5.502;2024-03-07T14:27:31;26.42;;;13.80;;
18610;SDS011;9435;52.122;5.502;2024-03-07T14:30:11;23.60;;;12.77;;
18610;SDS011;9435;52.122;5.502;2024-03-07T14:32:49;26.52;;;14.40;;
18610;SDS011;9435;52.122;5.502;2024-03-07T14:35:22;27.90;;;14.60;;
18610;SDS011;9435;52.122;5.502;2024-03-07T14:38:02;29.65;;;15.48;;
18610;SDS011;9435;52.122;5.502;2024-03-07T14:40:48;28.38;;;15.55;;
18610;SDS011;9435;52.122;5.502;2024-03-07T14:43:17;29.60;;;15.90;;
18610;SDS011;9435;52.122;5.502;2024-03-07T14:45:46;26.77;;;14.88;;
18610;SDS011;9435;52.122;5.502;2024-03-07T14:48:15;26.33;;;13.55;;
18610;SDS011;9435;52.122;5.502;2024-03-07T14:50:44;24.65;;;13.32;;
18610;SDS011;9435;52.122;5.502;2024-03-07T14:53:14;25.85;;;13.68;;
18610;SDS011;9435;52.122;5.502;2024-03-07T14:55:43;27.63;;;14.38;;